Arapahoe, CO

9:33 PM MDT on August 29, 2015 (GMT -0600)
KWS | | Change Station
CLOSE
Current Station
Personal Weather Station
Location: Cheyenne Wells, CO
Elevation: 4252 ft
Nearby Weather Stations

Elev 4252 ft 38.82 °N, 102.33 °W | Updated 3 minutes ago

Clear
Clear
69.0 °F
Feels Like 69.0 °F
N
8.0
Wind Variable Wind from South
Gusts 10.0 mph

Today
High -- | Low -- °F
--% Chance of Precip.
Yesterday
High -- | Low -- °F
Precip. -- in
6:14 AM 7:24 PM
Full, 100% visible
Pressure 30.02 in
Visibility 10.0 miles
Clouds Clear
Dew Point 46 °F
Humidity 44%
Rainfall 0.00 in
Snow Depth Not available.
UV 0 out of 12
Pollen 10.00 out of 12
Air Quality Not available.
Flu Activity Not available.
METAR KITR 300253Z AUTO 17009KT 10SM CLR 19/07 A3016 RMK AO2 SLP165 T01940072 53007
Pressure 30.02 in
Visibility 10.0 miles
Clouds Clear
Dew Point 46 °F
Humidity 44%
Rainfall 0.00 in
Snow Depth Not available.
UV 0 out of 12
Pollen 10.00 out of 12
Air Quality Not available.
Flu Activity Not available.
METAR KITR 300253Z AUTO 17009KT 10SM CLR 19/07 A3016 RMK AO2 SLP165 T01940072 53007

10-Day Weather Forecast

×

Almanac

Astronomy

Aug. 29, 2015 Rise Set
Actual Time
Civil Twilight
Nautical Twilight
Astronomical Twilight
Moon
Length of Visible Light
Length of Day
Tomorrow will be .
, % of the Moon is Illuminated

Today's Extremes

State Highs State Lows

Community

WunderPhotos

Upload Photos

1,850,870 photos uploaded!

WunderBlogs® & News

Nearby

Air Quality

  Air Quality AQ Index Pollutant
Not available.

Snow Depth

Station Depth Elevation

Earthquake Activity

City Distance Mag. Time & Date
Minimum magnitude displayed is 2.5.

Coastal Water Temperatures

Place Temperature

Stations

Nearby Weather Stations

Station Location Temp. Windchill Dew Point Humidity Wind Precip. Elev Updated Type